Arroyo Seco, New Mexico
Current Conditions -  °F | °C
As of 3:55 PM on Thursday 23 Oct 2014 (Local Time) from KSKX Reporting Station
Clear Clear  
Wind Chill: 66°   Ceiling: Unl
Heat Index: 66°   Visibility: 10mi
Dew Point: 28°   Wind: 0mph
Humidity: 24%   Direction: NA
Pressure: 30.27"   Gusts: NA
Location:  36.52°N, 105.57°W
Report Text: KSKX 232155Z AUTO 00000KT 10SM CLR 19/M02 A3027 RMK AO1
Loading
Personal Weather Stations






























Interactive Weather Map
Tropical Storm Tracking
New forecast layout! Learn more

10-Day Weather Forecast

Advertisements
Track Severe Weather on mobile